Pearl Harbor, Hawaii
Current Conditions -  °F | °C
As of 1:53 AM on Wednesday 22 Oct 2014 (Local Time) from PHNL Reporting Station
Scattered Clouds Scattered Clouds  
Wind Chill: 77°   Ceiling: Unl
Heat Index: 78°   Visibility: 10mi
Dew Point: 73°   Wind: 3mph
Humidity: 88%   Direction: 340°NNW
Pressure: 29.98"   Gusts: NA
Location:  21.31°N, 157.86°W
Report Text: PHNL 221153Z 34003KT 10SM FEW029 SCT065 25/23 A2998 RMK AO2 SLP152 T02500228 10272 20250 58007
Loading
Personal Weather Stations






























Interactive Weather Map
Tropical Storm Tracking
New forecast layout! Learn more

10-Day Weather Forecast

Advertisements
Track Severe Weather on mobile